Time;durP1;ratioP1;P1;durP2;ratioP2;P2;SDS_P1;SDS_P2;PMS_P1;PMS_P2;Temp;Humidity;BMP_temperature;BMP_pressure;BME280_temperature;BME280_humidity;BME280_pressure;Samples;Min_cycle;Max_cycle;Signal;HPM_P1;HPM_P2
2023/11/02 00:00:44;;;;;;;26.52;14.25;;;;;;;7.44;100.00;91755.91;6271765;22;20437;-77
2023/11/02 00:03:28;;;;;;;27.85;14.98;;;;;;;7.45;100.00;91755.63;6238774;22;20077;-76
2023/11/02 00:05:54;;;;;;;27.48;15.90;;;;;;;7.48;100.00;91757.66;6270961;22;20022;-76
2023/11/02 00:08:31;;;;;;;27.58;15.95;;;;;;;7.45;100.00;91750.41;6271816;22;20035;-76
2023/11/02 00:10:57;;;;;;;29.33;17.00;;;;;;;7.45;100.00;91744.41;6271649;22;20434;-76
2023/11/02 00:13:27;;;;;;;41.67;18.60;;;;;;;7.45;100.00;91736.59;6271126;22;20475;-77
2023/11/02 00:15:53;;;;;;;35.17;17.98;;;;;;;7.44;100.00;91732.47;6245128;22;20351;-76
2023/11/02 00:18:19;;;;;;;46.20;22.98;;;;;;;7.43;100.00;91729.09;6271607;22;20020;-77
2023/11/02 00:20:47;;;;;;;29.00;16.80;;;;;;;7.44;100.00;91716.84;6271283;22;20521;-76
2023/11/02 00:23:19;;;;;;;31.02;18.60;;;;;;;7.44;100.00;91714.22;6270921;22;20019;-76
2023/11/02 00:25:49;;;;;;;36.20;16.98;;;;;;;7.44;100.00;91701.22;6243360;22;20007;-76
2023/11/02 00:28:15;;;;;;;28.52;17.50;;;;;;;7.44;100.00;91701.97;6243674;22;20019;-75
2023/11/02 00:30:44;;;;;;;33.75;17.83;;;;;;;7.44;100.00;91690.78;6270800;22;20015;-76
2023/11/02 00:33:13;;;;;;;33.85;18.63;;;;;;;7.43;100.00;91697.03;6243912;22;20340;-76
2023/11/02 00:35:46;;;;;;;37.17;20.02;;;;;;;7.57;100.00;91692.66;6271000;22;20004;-75
2023/11/02 00:38:26;;;;;;;32.67;17.27;;;;;;;7.54;100.00;91690.59;6271320;22;20094;-76
2023/11/02 00:40:54;;;;;;;33.55;17.05;;;;;;;7.47;100.00;91685.78;6271188;22;20091;-76
2023/11/02 00:43:21;;;;;;;29.33;16.45;;;;;;;7.45;100.00;91687.13;6271444;22;20103;-76
2023/11/02 00:45:47;;;;;;;32.60;17.48;;;;;;;7.43;100.00;91677.00;6272929;22;20339;-76
2023/11/02 00:48:17;;;;;;;40.58;20.02;;;;;;;7.42;100.00;91675.44;6272581;22;20094;-76
2023/11/02 00:51:08;;;;;;;39.45;17.90;;;;;;;7.44;100.00;91678.53;6273197;22;20084;-77
2023/11/02 00:53:39;;;;;;;30.02;17.08;;;;;;;7.43;100.00;91673.59;6273036;22;20689;-76
2023/11/02 00:56:07;;;;;;;33.83;17.60;;;;;;;7.43;100.00;91676.22;6273006;22;20018;-76
2023/11/02 00:58:34;;;;;;;28.92;17.00;;;;;;;7.45;100.00;91663.69;6246073;22;20031;-76
2023/11/02 01:01:03;;;;;;;31.70;17.50;;;;;;;7.44;100.00;91662.91;6273321;22;20429;-77
2023/11/02 01:03:29;;;;;;;32.42;16.75;;;;;;;7.45;100.00;91661.88;6245950;22;20020;-75
2023/11/02 01:05:55;;;;;;;33.35;16.42;;;;;;;7.55;100.00;91660.91;6272860;22;20240;-76
2023/11/02 01:08:31;;;;;;;32.17;16.17;;;;;;;7.62;100.00;91666.53;6272704;22;20016;-77
2023/11/02 01:10:57;;;;;;;35.05;18.92;;;;;;;7.50;100.00;91668.81;6245431;22;20011;-75
2023/11/02 01:13:23;;;;;;;37.28;18.08;;;;;;;7.44;100.00;91655.09;6244971;22;20000;-76
2023/11/02 01:16:09;;;;;;;36.50;18.20;;;;;;;7.45;100.00;91655.88;6272548;22;20074;-77
2023/11/02 01:18:39;;;;;;;40.35;18.63;;;;;;;7.41;100.00;91657.53;6245753;22;20019;-77
2023/11/02 01:21:06;;;;;;;38.28;18.73;;;;;;;7.40;100.00;91653.34;6272910;22;20011;-76
2023/11/02 01:23:33;;;;;;;36.58;16.67;;;;;;;7.42;100.00;91651.25;6273268;22;20006;-76
2023/11/02 01:26:04;;;;;;;45.45;18.67;;;;;;;7.36;100.00;91641.97;6272499;22;20046;-76
2023/11/02 01:28:52;;;;;;;317.77;22.98;;;;;;;7.34;100.00;91644.88;6221161;22;20286;-76
2023/11/02 01:31:20;;;;;;;633.83;26.50;;;;;;;7.39;100.00;91647.38;6245152;22;20007;-76
2023/11/02 01:33:54;;;;;;;876.92;31.48;;;;;;;7.28;100.00;91638.97;6245543;22;20008;-76
2023/11/02 01:36:39;;;;;;;1054.53;34.20;;;;;;;7.27;100.00;91634.84;6272336;22;20182;-77
2023/11/02 01:39:47;;;;;;;1462.68;40.20;;;;;;;7.17;100.00;91632.38;6245378;22;20015;-76
2023/11/02 01:42:25;;;;;;;1086.95;35.13;;;;;;;7.13;100.00;91620.22;6272505;22;20313;-77
2023/11/02 01:45:10;;;;;;;220.18;21.00;;;;;;;7.14;100.00;91625.16;6220214;22;20090;-76
2023/11/02 01:47:41;;;;;;;42.03;19.00;;;;;;;7.18;100.00;91620.94;6272744;22;20008;-77
2023/11/02 01:50:17;;;;;;;43.25;20.08;;;;;;;7.19;100.00;91622.47;6245058;22;20318;-77
2023/11/02 01:52:46;;;;;;;44.38;18.42;;;;;;;7.22;100.00;91611.47;6271956;22;20087;-77
2023/11/02 01:55:30;;;;;;;45.13;19.92;;;;;;;7.24;100.00;91606.75;6272476;22;20011;-75
2023/11/02 01:58:11;;;;;;;37.53;18.45;;;;;;;7.26;100.00;91602.03;6244755;22;20460;-77
2023/11/02 02:00:56;;;;;;;43.35;19.48;;;;;;;7.20;100.00;91589.38;6272181;22;20061;-75
2023/11/02 02:03:30;;;;;;;34.83;16.42;;;;;;;7.30;100.00;91590.00;6272716;22;20433;-77
2023/11/02 02:06:23;;;;;;;30.13;15.90;;;;;;;7.30;100.00;91576.97;6261907;22;20062;-77
2023/11/02 02:09:04;;;;;;;39.33;15.65;;;;;;;7.32;100.00;91573.31;6275382;22;20015;-76
2023/11/02 02:11:48;;;;;;;33.38;15.90;;;;;;;7.32;100.00;91568.88;6275570;22;20007;-75
2023/11/02 02:14:51;;;;;;;26.45;14.25;;;;;;;7.33;100.00;91559.25;6274702;22;20014;-76
2023/11/02 02:17:17;;;;;;;27.60;12.98;;;;;;;7.33;100.00;91543.63;6302515;22;20010;-76
2023/11/02 02:20:03;;;;;;;31.02;14.55;;;;;;;7.34;100.00;91537.34;6302702;22;20322;-77
2023/11/02 02:22:43;;;;;;;28.90;14.50;;;;;;;7.35;100.00;91533.69;6302525;22;20434;-76
2023/11/02 02:25:13;;;;;;;26.58;13.75;;;;;;;7.36;100.00;91519.59;6303217;22;20015;-76
2023/11/02 02:28:10;;;;;;;28.67;9.93;;;;;;;7.40;100.00;91503.09;6303623;22;20094;-76
2023/11/02 02:31:11;;;;;;;24.15;10.02;;;;;;;7.43;100.00;91496.53;6303056;22;20003;-76
2023/11/02 02:33:43;;;;;;;12.02;5.63;;;;;;;7.41;100.00;91483.06;6157304;23;20005;-76
2023/11/02 02:36:27;;;;;;;10.90;5.00;;;;;;;7.37;100.00;91479.50;6286978;22;20207;-75
2023/11/02 02:39:02;;;;;;;21.20;9.90;;;;;;;7.38;100.00;91473.97;6275392;22;20065;-76
2023/11/02 02:41:31;;;;;;;23.58;10.13;;;;;;;7.41;100.00;91483.06;6302510;22;20511;-76
2023/11/02 02:43:59;;;;;;;16.85;7.82;;;;;;;7.40;100.00;91491.94;6275342;22;20011;-77
2023/11/02 02:46:31;;;;;;;15.82;7.55;;;;;;;7.40;100.00;91494.53;6302837;22;20043;-74
2023/11/02 02:48:56;;;;;;;15.05;6.50;;;;;;;7.36;100.00;91488.34;6304051;22;20090;-77
2023/11/02 02:51:26;;;;;;;14.93;6.40;;;;;;;7.35;100.00;91489.44;6275759;22;20058;-77
2023/11/02 02:53:54;;;;;;;10.63;5.18;;;;;;;7.40;100.00;91492.69;6275304;22;19995;-75
2023/11/02 02:56:25;;;;;;;12.77;5.57;;;;;;;7.37;100.00;91490.69;6302808;22;20034;-76
2023/11/02 02:58:58;;;;;;;11.63;5.47;;;;;;;7.36;100.00;91491.72;6303064;22;20007;-76
2023/11/02 03:01:28;;;;;;;9.93;5.20;;;;;;;7.34;100.00;91485.28;6274988;22;20156;-76
2023/11/02 03:04:00;;;;;;;11.65;5.40;;;;;;;7.42;100.00;91492.41;6275220;22;20454;-77
2023/11/02 03:06:28;;;;;;;12.27;4.47;;;;;;;7.33;100.00;91494.91;6274583;22;20022;-75
2023/11/02 03:08:56;;;;;;;8.98;4.45;;;;;;;7.29;100.00;91491.34;6274991;22;20018;-75
2023/11/02 03:11:24;;;;;;;10.15;3.90;;;;;;;7.45;100.00;91484.00;6302597;22;20092;-76
2023/11/02 03:13:53;;;;;;;9.55;4.10;;;;;;;7.36;100.00;91480.53;6274491;22;20062;-76
2023/11/02 03:16:20;;;;;;;7.65;2.85;;;;;;;7.41;100.00;91477.88;6301872;22;20003;-76
2023/11/02 03:18:47;;;;;;;8.40;3.50;;;;;;;7.24;100.00;91478.44;6301704;22;20011;-76
2023/11/02 03:21:14;;;;;;;9.02;4.05;;;;;;;7.17;100.00;91465.03;6301509;22;20007;-76
2023/11/02 03:23:58;;;;;;;7.70;4.50;;;;;;;7.20;100.00;91473.03;6301510;22;20015;-75
2023/11/02 03:26:32;;;;;;;13.30;4.88;;;;;;;7.14;100.00;91479.41;6301460;22;20014;-74
2023/11/02 03:29:08;;;;;;;7.93;4.38;;;;;;;7.09;100.00;91480.28;6301849;22;20344;-75
2023/11/02 03:32:05;;;;;;;10.68;4.72;;;;;;;7.11;100.00;91484.41;6301904;22;20452;-75
2023/11/02 03:34:50;;;;;;;10.25;4.18;;;;;;;7.10;100.00;91488.84;6302179;22;20057;-76
2023/11/02 03:37:23;;;;;;;9.10;3.85;;;;;;;7.12;100.00;91480.75;6302130;22;20632;-76
2023/11/02 03:40:39;;;;;;;6.72;3.20;;;;;;;7.17;100.00;91463.19;6301537;22;20003;-76
2023/11/02 03:43:10;;;;;;;6.80;3.40;;;;;;;7.19;100.00;91460.31;6280486;22;20089;-76
2023/11/02 03:45:59;;;;;;;7.03;4.05;;;;;;;7.18;100.00;91463.97;6301432;22;20007;-75
2023/11/02 03:48:34;;;;;;;7.68;3.55;;;;;;;7.21;100.00;91445.19;6274349;22;20014;-76
2023/11/02 03:51:13;;;;;;;5.55;3.63;;;;;;;7.17;100.00;91452.78;6301791;22;20011;-76
2023/11/02 03:53:42;;;;;;;7.28;4.00;;;;;;;7.22;100.00;91454.53;6301739;22;20019;-76
2023/11/02 03:56:23;;;;;;;6.20;3.55;;;;;;;7.23;100.00;91446.44;6301996;22;20011;-76
2023/11/02 03:59:12;;;;;;;6.57;3.53;;;;;;;7.24;100.00;91442.75;6274607;22;20017;-76
2023/11/02 04:01:42;;;;;;;9.63;3.97;;;;;;;7.17;100.00;91442.38;6301255;22;20034;-76
2023/11/02 04:04:11;;;;;;;6.72;3.70;;;;;;;7.14;100.00;91435.16;6301666;22;20034;-76
2023/11/02 04:07:00;;;;;;;6.78;4.00;;;;;;;7.15;100.00;91423.69;6276346;22;20231;-76
2023/11/02 04:09:35;;;;;;;14.13;4.70;;;;;;;7.13;100.00;91423.19;6270807;22;20008;-76
2023/11/02 04:12:24;;;;;;;7.53;3.17;;;;;;;7.28;100.00;91435.16;6270440;22;20016;-75
2023/11/02 04:14:53;;;;;;;9.25;4.03;;;;;;;7.18;100.00;91422.31;6270844;22;20125;-76
2023/11/02 04:17:20;;;;;;;12.77;5.38;;;;;;;7.16;100.00;91425.22;6270437;22;20057;-76
2023/11/02 04:19:46;;;;;;;10.05;5.40;;;;;;;7.11;100.00;91424.56;6271514;22;20038;-76
2023/11/02 04:22:12;;;;;;;9.18;5.70;;;;;;;7.06;100.00;91426.19;6270921;22;20008;-75
2023/11/02 04:24:41;;;;;;;12.02;5.63;;;;;;;7.02;100.00;91422.63;6243047;22;20149;-76
2023/11/02 04:27:07;;;;;;;7.95;4.72;;;;;;;6.97;100.00;91412.31;6270746;22;20012;-76
2023/11/02 04:29:34;;;;;;;8.52;5.03;;;;;;;6.95;100.00;91408.47;6270602;22;20024;-76
2023/11/02 04:31:59;;;;;;;9.43;5.18;;;;;;;6.93;100.00;91413.19;6270204;22;20010;-76
2023/11/02 04:34:25;;;;;;;13.55;5.25;;;;;;;6.94;100.00;91406.94;6270569;22;20457;-76
2023/11/02 04:36:51;;;;;;;10.00;5.15;;;;;;;6.96;100.00;91405.56;6270299;22;20392;-76
2023/11/02 04:39:16;;;;;;;8.02;5.07;;;;;;;6.98;100.00;91406.06;6270845;22;20027;-76
2023/11/02 04:41:42;;;;;;;10.20;5.88;;;;;;;6.99;100.00;91401.63;6243564;22;20008;-76
2023/11/02 04:44:08;;;;;;;10.60;5.70;;;;;;;7.00;100.00;91390.13;6270411;22;20345;-75
2023/11/02 04:46:34;;;;;;;9.75;5.78;;;;;;;6.99;100.00;91373.00;6270075;22;20113;-76
2023/11/02 04:49:00;;;;;;;9.10;5.47;;;;;;;7.01;100.00;91369.03;6243531;22;20016;-75
2023/11/02 04:51:25;;;;;;;8.23;5.18;;;;;;;7.03;100.00;91389.56;6243097;22;20008;-76
2023/11/02 04:53:51;;;;;;;9.68;5.00;;;;;;;7.06;100.00;91400.16;6270443;22;20062;-76
2023/11/02 04:56:19;;;;;;;11.85;5.40;;;;;;;7.07;100.00;91390.53;6270456;22;20011;-76
2023/11/02 04:58:45;;;;;;;10.60;4.68;;;;;;;7.09;100.00;91373.56;6270674;22;20098;-76
2023/11/02 05:01:11;;;;;;;7.20;4.15;;;;;;;7.11;100.00;91370.66;6270985;22;20019;-75
2023/11/02 05:03:36;;;;;;;7.47;3.70;;;;;;;7.09;100.00;91372.78;6270631;22;20012;-76
2023/11/02 05:06:02;;;;;;;6.55;3.03;;;;;;;7.18;100.00;91367.66;6260386;22;20019;-76
2023/11/02 05:08:28;;;;;;;6.13;2.85;;;;;;;7.24;100.00;91364.66;6301086;22;20387;-77
2023/11/02 05:10:53;;;;;;;6.97;3.63;;;;;;;7.21;100.00;91354.09;6301024;22;20094;-77
2023/11/02 05:13:19;;;;;;;7.13;3.85;;;;;;;7.25;100.00;91355.00;6300654;22;20280;-76
2023/11/02 05:15:45;;;;;;;7.82;4.20;;;;;;;7.25;100.00;91350.59;6300739;22;20391;-75
2023/11/02 05:18:11;;;;;;;8.10;4.53;;;;;;;7.26;100.00;91351.38;6273926;22;20004;-76
2023/11/02 05:20:37;;;;;;;19.48;5.15;;;;;;;7.10;100.00;91343.13;6301086;22;20348;-76
2023/11/02 05:23:02;;;;;;;146.23;8.23;;;;;;;7.01;100.00;91332.63;6302032;22;20011;-77
2023/11/02 05:25:29;;;;;;;208.57;9.40;;;;;;;6.94;100.00;91295.06;6301366;22;20011;-76
2023/11/02 05:27:54;;;;;;;8.75;4.72;;;;;;;6.94;100.00;91261.25;6301131;22;20609;-76
2023/11/02 05:30:20;;;;;;;228.40;9.63;;;;;;;6.95;100.00;91262.75;6302142;22;20332;-76
2023/11/02 05:32:46;;;;;;;548.63;15.10;;;;;;;7.04;100.00;91272.19;6302944;22;20056;-75
2023/11/02 05:35:15;;;;;;;483.80;14.82;;;;;;;6.94;100.00;91276.84;6250137;22;20012;-76
2023/11/02 05:37:41;;;;;;;293.25;9.13;;;;;;;7.06;100.00;91287.50;6250747;22;20444;-77
2023/11/02 05:40:08;;;;;;;1077.55;25.33;;;;;;;7.04;100.00;91292.22;6250096;22;20065;-76
2023/11/02 05:42:34;;;;;;;1791.82;41.35;;;;;;;6.99;100.00;91287.91;6302937;22;20010;-76
2023/11/02 05:45:02;;;;;;;712.42;19.50;;;;;;;7.06;100.00;91295.31;6303189;22;20015;-75
2023/11/02 05:47:27;;;;;;;978.72;24.33;;;;;;;6.95;100.00;91278.38;6303007;22;20015;-76
2023/11/02 05:49:53;;;;;;;1232.40;29.30;;;;;;;6.87;100.00;91265.00;6302578;22;20082;-75
2023/11/02 05:52:19;;;;;;;317.17;11.13;;;;;;;6.88;100.00;91258.72;6302748;22;20027;-75
2023/11/02 05:54:44;;;;;;;994.80;24.60;;;;;;;6.88;100.00;91248.31;6302848;22;20475;-76
2023/11/02 05:57:11;;;;;;;785.33;20.10;;;;;;;6.92;100.00;91282.34;6302528;22;20476;-76
2023/11/02 05:59:38;;;;;;;352.35;11.70;;;;;;;6.92;100.00;91284.16;6302500;22;19999;-76
2023/11/02 06:02:03;;;;;;;283.88;10.75;;;;;;;6.92;100.00;91273.75;6302386;22;20011;-76
2023/11/02 06:04:29;;;;;;;368.00;11.05;;;;;;;6.92;100.00;91278.97;6249657;22;20099;-76
2023/11/02 06:06:55;;;;;;;219.00;9.63;;;;;;;6.93;100.00;91283.84;6274200;22;20430;-75
2023/11/02 06:09:20;;;;;;;18.50;6.32;;;;;;;6.93;100.00;91270.84;6272035;22;20643;-76
2023/11/02 06:11:46;;;;;;;12.25;5.15;;;;;;;6.98;100.00;91262.16;6271437;22;20022;-77
2023/11/02 06:14:12;;;;;;;9.48;5.53;;;;;;;6.96;100.00;91270.28;6271064;22;20000;-75
2023/11/02 06:16:37;;;;;;;8.68;5.30;;;;;;;6.97;100.00;91271.03;6244325;22;20011;-75
2023/11/02 06:19:03;;;;;;;9.95;5.45;;;;;;;7.00;100.00;91265.25;6270794;22;20020;-75
2023/11/02 06:21:29;;;;;;;11.23;5.60;;;;;;;7.01;100.00;91267.56;6243526;22;20007;-75
2023/11/02 06:23:55;;;;;;;10.50;5.70;;;;;;;7.03;100.00;91259.47;6271542;22;20040;-75
2023/11/02 06:26:20;;;;;;;7.85;4.53;;;;;;;7.05;100.00;91265.16;6272618;22;20069;-81
2023/11/02 06:28:46;;;;;;;13.30;4.93;;;;;;;7.06;100.00;91261.47;6223283;22;20010;-79
2023/11/02 06:31:12;;;;;;;7.03;4.20;;;;;;;7.06;100.00;91262.25;6223036;22;20019;-79
2023/11/02 06:33:38;;;;;;;7.65;4.28;;;;;;;7.08;100.00;91251.56;6274878;22;20015;-79
2023/11/02 06:36:04;;;;;;;6.25;3.80;;;;;;;7.12;100.00;91254.34;6274122;22;20016;-79
2023/11/02 06:38:30;;;;;;;5.90;3.67;;;;;;;7.14;100.00;91266.00;6247359;22;20038;-78
2023/11/02 06:40:56;;;;;;;7.95;3.60;;;;;;;7.18;100.00;91269.56;6273107;22;20000;-79
2023/11/02 06:43:22;;;;;;;5.25;3.38;;;;;;;7.17;100.00;91264.63;6274408;22;20385;-78
2023/11/02 06:45:48;;;;;;;5.72;3.53;;;;;;;7.18;100.00;91250.53;6274246;22;20441;-78
2023/11/02 06:48:13;;;;;;;6.00;3.10;;;;;;;7.19;100.00;91246.91;6275802;22;20022;-77
2023/11/02 06:50:39;;;;;;;6.63;3.67;;;;;;;7.23;100.00;91253.81;6276851;22;20063;-76
2023/11/02 06:53:04;;;;;;;123.95;4.80;;;;;;;7.26;100.00;91260.25;6275047;22;20050;-77
2023/11/02 06:55:30;;;;;;;658.88;14.50;;;;;;;7.19;100.00;91247.66;6274611;22;20022;-78
2023/11/02 06:57:56;;;;;;;641.22;14.27;;;;;;;7.15;100.00;91241.50;6247128;22;20000;-79
2023/11/02 07:00:22;;;;;;;805.97;19.70;;;;;;;7.13;100.00;91235.06;6250302;22;20042;-79
2023/11/02 07:02:49;;;;;;;1672.07;38.95;;;;;;;7.09;100.00;91227.06;6225589;22;20035;-81
2023/11/02 07:05:20;;;;;;;1329.72;31.08;;;;;;;7.07;100.00;91231.81;6252722;22;20019;-80
2023/11/02 07:07:49;;;;;;;1719.30;38.33;;;;;;;7.05;100.00;91218.31;6256429;22;20019;-82
2023/11/02 07:10:15;;;;;;;1043.30;23.65;;;;;;;7.07;100.00;91211.00;6281045;22;20114;-81
2023/11/02 07:12:41;;;;;;;361.70;10.95;;;;;;;7.11;100.00;91201.50;6278743;22;20018;-80
2023/11/02 07:15:08;;;;;;;7.38;4.35;;;;;;;7.15;100.00;91199.84;6282620;22;20379;-82
2023/11/02 07:17:33;;;;;;;5.22;3.40;;;;;;;7.18;100.00;91204.50;6278926;22;20448;-83
2023/11/02 07:20:08;;;;;;;4.68;2.58;;;;;;;7.20;100.00;91207.53;6281485;22;20022;-82
2023/11/02 07:22:34;;;;;;;4.88;2.28;;;;;;;7.23;100.00;91195.78;6249808;22;20476;-80
2023/11/02 07:25:03;;;;;;;4.07;2.15;;;;;;;7.23;100.00;91193.94;6252295;22;19999;-81
2023/11/02 07:27:29;;;;;;;3.40;2.13;;;;;;;7.29;100.00;91189.38;6282001;22;20011;-80
2023/11/02 07:29:55;;;;;;;4.00;2.15;;;;;;;7.33;100.00;91189.56;6279445;22;20055;-79
2023/11/02 07:32:26;;;;;;;3.50;1.90;;;;;;;7.41;100.00;91181.06;6279019;22;20000;-80
2023/11/02 07:35:02;;;;;;;3.95;1.80;;;;;;;7.57;100.00;91176.22;6279226;22;20060;-79
2023/11/02 07:37:31;;;;;;;5.25;1.73;;;;;;;7.47;100.00;91170.19;6281414;22;20016;-82
2023/11/02 07:39:57;;;;;;;2.90;1.75;;;;;;;7.42;100.00;91164.34;6279718;22;20006;-80
2023/11/02 07:42:26;;;;;;;2.47;1.50;;;;;;;7.42;100.00;91152.09;6279802;22;20065;-81
2023/11/02 07:44:51;;;;;;;2.97;1.65;;;;;;;7.44;100.00;91146.59;6280210;22;20090;-82
2023/11/02 07:47:24;;;;;;;1.48;1.10;;;;;;;7.47;100.00;91144.16;6281187;22;20027;-82
2023/11/02 07:49:49;;;;;;;4.85;2.30;;;;;;;7.44;100.00;91125.75;6280308;22;20041;-80
2023/11/02 07:52:15;;;;;;;244.73;5.63;;;;;;;7.57;100.00;91121.53;6251628;22;20039;-80
2023/11/02 07:54:41;;;;;;;69.70;3.00;;;;;;;7.40;100.00;91115.16;6279023;22;20000;-79
2023/11/02 07:57:08;;;;;;;2.13;1.40;;;;;;;7.45;100.00;91109.06;6278871;22;20041;-79
2023/11/02 07:59:35;;;;;;;2.70;1.50;;;;;;;7.41;100.00;91111.50;6279439;22;20016;-79
2023/11/02 08:02:02;;;;;;;1.90;1.30;;;;;;;7.22;100.00;91106.50;6279723;22;20000;-80
2023/11/02 08:04:27;;;;;;;2.85;1.60;;;;;;;7.25;100.00;91105.94;6276928;22;20018;-81
2023/11/02 08:06:53;;;;;;;2.83;1.60;;;;;;;7.28;100.00;91096.75;6278043;22;20098;-80
2023/11/02 08:09:31;;;;;;;3.15;1.73;;;;;;;7.30;100.00;91087.56;6279593;22;20038;-82
2023/11/02 08:11:57;;;;;;;3.17;1.70;;;;;;;7.30;100.00;91084.97;6280863;22;20072;-82
2023/11/02 08:14:23;;;;;;;3.22;2.03;;;;;;;7.25;100.00;91082.50;6279352;22;20083;-82
2023/11/02 08:16:50;;;;;;;219.10;6.13;;;;;;;7.33;100.00;91067.97;6277865;22;20015;-80
2023/11/02 08:19:22;;;;;;;137.70;4.82;;;;;;;7.36;100.00;91059.56;6275792;22;20437;-81
2023/11/02 08:21:48;;;;;;;249.90;6.90;;;;;;;7.40;100.00;91062.34;6277580;22;20502;-82
2023/11/02 08:24:14;;;;;;;6.68;2.45;;;;;;;7.38;100.00;91048.84;6278490;22;20004;-81
2023/11/02 08:26:40;;;;;;;3.67;1.85;;;;;;;7.37;100.00;91045.50;6278656;22;20420;-80
2023/11/02 08:29:06;;;;;;;3.95;1.83;;;;;;;7.30;100.00;91040.72;6278547;22;20011;-82
2023/11/02 08:31:35;;;;;;;0.93;0.90;;;;;;;7.38;100.00;91023.59;6252924;22;20004;-82
2023/11/02 08:34:04;;;;;;;2.22;1.33;;;;;;;7.43;100.00;91012.25;6276996;22;20103;-80
2023/11/02 08:36:34;;;;;;;2.90;1.65;;;;;;;7.38;100.00;91013.16;6276177;22;20016;-82
2023/11/02 08:38:59;;;;;;;7.97;2.30;;;;;;;7.39;100.00;91016.56;6278399;22;20054;-81
2023/11/02 08:41:32;;;;;;;5.10;2.00;;;;;;;7.39;100.00;91016.56;6276086;22;20001;-81
2023/11/02 08:43:59;;;;;;;8.00;2.40;;;;;;;7.34;100.00;90998.44;6278153;22;20004;-81
2023/11/02 08:46:28;;;;;;;5.68;2.95;;;;;;;7.27;100.00;90983.28;6275681;22;20318;-82
2023/11/02 08:48:53;;;;;;;8.20;2.35;;;;;;;7.26;100.00;90969.50;6277677;22;20016;-83
2023/11/02 08:51:21;;;;;;;26.45;3.05;;;;;;;7.32;100.00;90967.53;6275150;22;20027;-82
2023/11/02 08:53:50;;;;;;;4.80;2.25;;;;;;;7.32;100.00;90956.34;6277843;22;20087;-82
2023/11/02 08:56:16;;;;;;;3.70;2.13;;;;;;;7.28;100.00;90951.75;6277966;22;20002;-81
2023/11/02 08:59:01;;;;;;;6.07;2.10;;;;;;;7.30;100.00;90941.03;6278438;22;20016;-81
2023/11/02 09:01:26;;;;;;;2.88;1.50;;;;;;;7.32;100.00;90932.91;6276502;22;20008;-80
2023/11/02 09:04:01;;;;;;;4.50;1.80;;;;;;;7.38;100.00;90931.72;6276956;22;20004;-80
2023/11/02 09:06:31;;;;;;;3.40;2.10;;;;;;;7.40;100.00;90917.31;6281410;22;20020;-81
2023/11/02 09:08:57;;;;;;;3.83;2.22;;;;;;;7.35;100.00;90911.50;6255418;22;20449;-82
2023/11/02 09:11:24;;;;;;;8.73;2.92;;;;;;;7.30;100.00;90907.97;6252357;22;20034;-81
2023/11/02 09:13:50;;;;;;;5.13;2.80;;;;;;;7.33;100.00;90893.56;6251802;22;20476;-81
2023/11/02 09:16:17;;;;;;;4.07;2.40;;;;;;;7.34;100.00;90889.91;6279048;22;20064;-80
2023/11/02 09:18:43;;;;;;;3.90;2.33;;;;;;;7.35;100.00;90885.47;6279839;22;20027;-82
2023/11/02 09:21:10;;;;;;;3.67;2.20;;;;;;;7.38;100.00;90887.44;6279361;22;20404;-80
2023/11/02 09:23:37;;;;;;;4.32;2.22;;;;;;;7.39;100.00;90873.38;6282148;22;20098;-81
2023/11/02 09:26:05;;;;;;;3.90;1.90;;;;;;;7.39;100.00;90866.34;6281605;22;20043;-82
2023/11/02 09:28:31;;;;;;;4.80;1.80;;;;;;;7.45;100.00;90848.72;6255259;22;20023;-81
2023/11/02 09:30:56;;;;;;;4.50;2.50;;;;;;;7.48;100.00;90832.50;6282114;22;20273;-83
2023/11/02 09:33:22;;;;;;;4.50;2.17;;;;;;;7.50;100.00;90830.34;6253508;22;20015;-82
2023/11/02 09:35:55;;;;;;;5.28;2.22;;;;;;;7.59;100.00;90825.13;6281578;22;20015;-81
2023/11/02 09:38:28;;;;;;;4.40;2.10;;;;;;;7.56;100.00;90808.28;6253477;22;20065;-81
2023/11/02 09:40:56;;;;;;;4.82;1.60;;;;;;;7.58;100.00;90808.72;6280484;22;20054;-81
2023/11/02 09:43:22;;;;;;;2.75;1.40;;;;;;;7.60;100.00;90803.97;6280069;22;20012;-81
2023/11/02 09:45:48;;;;;;;3.35;1.90;;;;;;;7.61;100.00;90800.31;6279414;22;20012;-81
2023/11/02 09:48:13;;;;;;;2.25;1.35;;;;;;;7.64;100.00;90802.28;6251419;22;20026;-80
2023/11/02 09:50:39;;;;;;;1.30;1.20;;;;;;;7.66;100.00;90787.13;6278715;22;20020;-81
2023/11/02 09:53:07;;;;;;;1.17;1.08;;;;;;;7.75;100.00;90781.16;6279722;22;20087;-81
2023/11/02 09:55:32;;;;;;;2.03;1.20;;;;;;;7.69;100.00;90777.94;6279847;22;19996;-82
2023/11/02 09:58:03;;;;;;;3.70;1.33;;;;;;;7.75;100.00;90775.94;6280376;22;20015;-81
2023/11/02 10:00:30;;;;;;;1.48;1.05;;;;;;;7.81;100.00;90766.88;6279476;22;20012;-82
2023/11/02 10:02:59;;;;;;;399.00;9.52;;;;;;;7.75;100.00;90761.06;6253020;22;20008;-81
2023/11/02 10:05:28;;;;;;;296.65;8.00;;;;;;;7.78;100.00;90754.47;6280191;22;20331;-83
2023/11/02 10:07:54;;;;;;;552.80;11.98;;;;;;;7.62;100.00;90754.19;6280588;22;20011;-81
2023/11/02 10:10:30;;;;;;;389.48;8.50;;;;;;;7.55;100.00;90744.25;6280970;22;20125;-82
2023/11/02 10:12:56;;;;;;;664.80;14.73;;;;;;;7.54;100.00;90734.91;6256096;22;20437;-81
2023/11/02 10:15:22;;;;;;;711.30;15.23;;;;;;;7.42;100.00;90719.16;6254884;22;20011;-83
2023/11/02 10:17:48;;;;;;;491.48;10.98;;;;;;;7.40;100.00;90721.31;6249516;22;20680;-79
2023/11/02 10:20:25;;;;;;;504.88;11.27;;;;;;;7.43;100.00;90711.06;6278827;22;20004;-82
2023/11/02 10:23:18;;;;;;;180.73;4.82;;;;;;;7.44;100.00;90698.78;6280520;22;20012;-78
2023/11/02 10:25:44;;;;;;;260.35;5.65;;;;;;;7.37;100.00;90691.47;6248805;22;20050;-81
2023/11/02 10:28:14;;;;;;;64.50;2.67;;;;;;;7.42;100.00;90693.88;6228275;22;20011;-81
2023/11/02 10:30:40;;;;;;;67.95;2.78;;;;;;;7.42;100.00;90685.31;6225838;22;20019;-81
2023/11/02 10:33:07;;;;;;;11.95;1.80;;;;;;;7.39;100.00;90691.16;6276986;22;20000;-80
2023/11/02 10:35:39;;;;;;;42.65;2.72;;;;;;;7.36;100.00;90684.72;6279362;22;20019;-79
2023/11/02 10:38:09;;;;;;;;;;;;;;;7.37;100.00;90669.88;6279677;22;20034;-80
2023/11/02 10:40:45;;;;;;;7.93;1.77;;;;;;;7.40;100.00;90653.63;6251336;22;19911;-81
2023/11/02 10:43:19;;;;;;;3.28;1.65;;;;;;;7.44;100.00;90655.28;6279124;22;20047;-81
2023/11/02 10:45:50;;;;;;;2.70;1.60;;;;;;;7.48;100.00;90647.63;6279861;22;20022;-81
2023/11/02 10:48:19;;;;;;;2.63;1.50;;;;;;;7.48;100.00;90645.03;6279725;22;20516;-81
2023/11/02 10:50:56;;;;;;;3.63;1.40;;;;;;;7.50;100.00;90640.28;6252181;22;20011;-78
2023/11/02 10:53:44;;;;;;;2.85;1.45;;;;;;;7.53;100.00;90646.69;6279548;22;20497;-80
2023/11/02 10:56:19;;;;;;;1.38;1.05;;;;;;;7.51;100.00;90628.78;6252642;22;20450;-82
2023/11/02 10:58:46;;;;;;;2.05;1.00;;;;;;;7.55;100.00;90619.28;6279512;22;20397;-79
2023/11/02 11:01:13;;;;;;;4.13;1.17;;;;;;;7.57;100.00;90604.09;6279460;22;20027;-81
2023/11/02 11:03:46;;;;;;;1.40;1.10;;;;;;;7.58;100.00;90582.19;6279086;22;20390;-82
2023/11/02 11:06:14;;;;;;;1.17;0.90;;;;;;;7.60;100.00;90569.63;6279628;22;20022;-82
2023/11/02 11:08:42;;;;;;;3.50;1.10;;;;;;;7.60;100.00;90569.63;6253472;22;20015;-81
2023/11/02 11:11:19;;;;;;;1.48;1.05;;;;;;;7.58;100.00;90566.56;6280532;22;20012;-81
2023/11/02 11:13:46;;;;;;;68.70;1.98;;;;;;;7.66;100.00;90562.41;6280783;22;20004;-82
2023/11/02 11:16:13;;;;;;;183.30;4.95;;;;;;;7.63;100.00;90571.63;6251230;22;20053;-80
2023/11/02 11:18:41;;;;;;;16.95;1.52;;;;;;;7.59;100.00;90560.28;6278723;22;20015;-79
2023/11/02 11:21:08;;;;;;;37.95;1.83;;;;;;;7.53;100.00;90534.75;6277017;22;20015;-80
2023/11/02 11:23:44;;;;;;;185.77;3.90;;;;;;;7.41;100.00;90525.00;6278678;22;20384;-79
2023/11/02 11:26:11;;;;;;;118.68;2.92;;;;;;;7.39;100.00;90522.72;6252110;22;20468;-81
2023/11/02 11:28:38;;;;;;;71.63;2.22;;;;;;;7.40;100.00;90515.66;6277001;22;20037;-78
2023/11/02 11:31:05;;;;;;;58.05;3.03;;;;;;;7.40;100.00;90510.44;6250826;22;20178;-80
2023/11/02 11:33:50;;;;;;;79.18;2.58;;;;;;;7.36;100.00;90501.75;6226721;22;20019;-78
2023/11/02 11:36:29;;;;;;;34.10;1.63;;;;;;;7.35;100.00;90492.41;6276715;22;20015;-79
2023/11/02 11:39:32;;;;;;;32.70;1.95;;;;;;;7.36;100.00;90479.06;6250983;22;20018;-78